sensor_id;sensor_type;location;lat;lon;timestamp;pressure;altitude;pressure_sealevel;temperature;humidity
18509;BME280;9383;50.928;12.116;2022-10-17T00:00:32;99389.03;;;11.58;100.00
18509;BME280;9383;50.928;12.116;2022-10-17T00:03:00;99391.78;;;11.57;100.00
18509;BME280;9383;50.928;12.116;2022-10-17T00:05:27;99390.09;;;11.52;100.00
18509;BME280;9383;50.928;12.116;2022-10-17T00:07:54;99391.06;;;11.50;100.00
18509;BME280;9383;50.928;12.116;2022-10-17T00:10:21;99402.59;;;11.49;100.00
18509;BME280;9383;50.928;12.116;2022-10-17T00:12:49;99404.44;;;11.47;100.00
18509;BME280;9383;50.928;12.116;2022-10-17T00:15:17;99400.97;;;11.45;100.00
18509;BME280;9383;50.928;12.116;2022-10-17T00:17:44;99403.63;;;11.45;100.00
18509;BME280;9383;50.928;12.116;2022-10-17T00:20:12;99401.91;;;11.44;100.00
18509;BME280;9383;50.928;12.116;2022-10-17T00:22:40;99399.25;;;11.44;100.00
18509;BME280;9383;50.928;12.116;2022-10-17T00:25:07;99401.06;;;11.42;100.00
18509;BME280;9383;50.928;12.116;2022-10-17T00:27:38;99396.69;;;11.40;100.00
18509;BME280;9383;50.928;12.116;2022-10-17T00:30:09;99399.25;;;11.44;100.00
18509;BME280;9383;50.928;12.116;2022-10-17T00:32:35;99392.22;;;11.41;100.00
18509;BME280;9383;50.928;12.116;2022-10-17T00:35:02;99402.00;;;11.40;100.00
18509;BME280;9383;50.928;12.116;2022-10-17T00:37:30;99402.00;;;11.40;100.00
18509;BME280;9383;50.928;12.116;2022-10-17T00:40:00;99401.13;;;11.40;100.00
18509;BME280;9383;50.928;12.116;2022-10-17T00:42:26;99400.25;;;11.39;100.00
18509;BME280;9383;50.928;12.116;2022-10-17T00:47:32;99405.56;;;11.39;100.00
18509;BME280;9383;50.928;12.116;2022-10-17T00:50:02;99406.50;;;11.38;100.00
18509;BME280;9383;50.928;12.116;2022-10-17T00:52:32;99407.38;;;11.37;100.00
18509;BME280;9383;50.928;12.116;2022-10-17T00:55:05;99407.38;;;11.37;100.00
18509;BME280;9383;50.928;12.116;2022-10-17T00:57:34;99410.09;;;11.36;100.00
18509;BME280;9383;50.928;12.116;2022-10-17T01:00:05;99404.78;;;11.36;100.00
18509;BME280;9383;50.928;12.116;2022-10-17T01:02:32;99397.75;;;11.35;100.00
18509;BME280;9383;50.928;12.116;2022-10-17T01:04:58;99407.47;;;11.34;100.00
18509;BME280;9383;50.928;12.116;2022-10-17T01:07:27;99403.06;;;11.35;100.00
18509;BME280;9383;50.928;12.116;2022-10-17T01:09:54;99394.28;;;11.33;100.00
18509;BME280;9383;50.928;12.116;2022-10-17T01:12:47;99399.63;;;11.31;100.00
18509;BME280;9383;50.928;12.116;2022-10-17T01:16:03;99397.00;;;11.30;100.00
18509;BME280;9383;50.928;12.116;2022-10-17T01:18:39;99399.66;;;11.30;100.00
18509;BME280;9383;50.928;12.116;2022-10-17T01:32:31;99394.66;;;11.20;100.00
18509;BME280;9383;50.928;12.116;2022-10-17T01:35:14;99383.19;;;11.18;100.00
18509;BME280;9383;50.928;12.116;2022-10-17T01:37:52;99379.69;;;11.18;100.00
18509;BME280;9383;50.928;12.116;2022-10-17T01:40:33;99377.06;;;11.16;100.00
18509;BME280;9383;50.928;12.116;2022-10-17T01:45:39;99375.47;;;11.10;100.00
18509;BME280;9383;50.928;12.116;2022-10-17T01:48:13;99387.91;;;11.08;100.00
18509;BME280;9383;50.928;12.116;2022-10-17T01:50:47;99378.25;;;11.06;100.00
18509;BME280;9383;50.928;12.116;2022-10-17T01:53:21;99375.69;;;11.03;100.00
18509;BME280;9383;50.928;12.116;2022-10-17T01:55:49;99383.66;;;11.03;100.00
18509;BME280;9383;50.928;12.116;2022-10-17T01:58:32;99383.72;;;11.01;100.00
18509;BME280;9383;50.928;12.116;2022-10-17T02:01:02;99373.09;;;11.01;100.00
18509;BME280;9383;50.928;12.116;2022-10-17T02:03:31;99380.16;;;11.02;100.00
18509;BME280;9383;50.928;12.116;2022-10-17T02:05:59;99379.25;;;11.02;100.00
18509;BME280;9383;50.928;12.116;2022-10-17T02:08:46;99374.06;;;10.98;100.00
18509;BME280;9383;50.928;12.116;2022-10-17T02:19:37;99381.38;;;10.90;100.00
18509;BME280;9383;50.928;12.116;2022-10-17T02:22:24;99389.38;;;10.89;100.00
18509;BME280;9383;50.928;12.116;2022-10-17T02:27:40;99380.56;;;10.87;100.00
18509;BME280;9383;50.928;12.116;2022-10-17T02:30:10;99385.03;;;10.86;100.00
18509;BME280;9383;50.928;12.116;2022-10-17T02:33:24;99383.28;;;10.85;100.00
18509;BME280;9383;50.928;12.116;2022-10-17T02:35:49;99393.94;;;10.83;100.00
18509;BME280;9383;50.928;12.116;2022-10-17T02:38:17;99389.50;;;10.84;100.00
18509;BME280;9383;50.928;12.116;2022-10-17T02:40:46;99380.66;;;10.83;100.00
18509;BME280;9383;50.928;12.116;2022-10-17T02:43:15;99392.09;;;10.86;100.00
18509;BME280;9383;50.928;12.116;2022-10-17T02:45:41;99388.53;;;10.87;100.00
18509;BME280;9383;50.928;12.116;2022-10-17T02:48:15;99385.84;;;10.88;100.00
18509;BME280;9383;50.928;12.116;2022-10-17T02:53:53;99393.56;;;10.96;100.00
18509;BME280;9383;50.928;12.116;2022-10-17T02:56:18;99397.00;;;11.00;100.00
18509;BME280;9383;50.928;12.116;2022-10-17T02:58:49;99398.72;;;11.02;100.00
18509;BME280;9383;50.928;12.116;2022-10-17T03:01:17;99400.31;;;11.08;100.00
18509;BME280;9383;50.928;12.116;2022-10-17T03:03:44;99399.31;;;11.12;100.00
18509;BME280;9383;50.928;12.116;2022-10-17T03:06:10;99398.25;;;11.18;100.00
18509;BME280;9383;50.928;12.116;2022-10-17T03:08:37;99397.16;;;11.25;100.00
18509;BME280;9383;50.928;12.116;2022-10-17T03:11:04;99394.34;;;11.30;100.00
18509;BME280;9383;50.928;12.116;2022-10-17T03:13:30;99402.97;;;11.36;100.00
18509;BME280;9383;50.928;12.116;2022-10-17T03:15:57;99403.66;;;11.43;100.00
18509;BME280;9383;50.928;12.116;2022-10-17T03:18:24;99399.03;;;11.50;100.00
18509;BME280;9383;50.928;12.116;2022-10-17T03:20:50;99400.63;;;11.56;100.00
18509;BME280;9383;50.928;12.116;2022-10-17T03:23:16;99403.13;;;11.60;100.00
18509;BME280;9383;50.928;12.116;2022-10-17T03:25:43;99400.22;;;11.68;100.00
18509;BME280;9383;50.928;12.116;2022-10-17T03:28:11;99407.09;;;11.75;100.00
18509;BME280;9383;50.928;12.116;2022-10-17T03:30:38;99399.84;;;11.80;100.00
18509;BME280;9383;50.928;12.116;2022-10-17T03:33:04;99404.19;;;11.83;100.00
18509;BME280;9383;50.928;12.116;2022-10-17T03:35:31;99404.94;;;11.88;100.00
18509;BME280;9383;50.928;12.116;2022-10-17T03:37:57;99416.28;;;11.92;100.00
18509;BME280;9383;50.928;12.116;2022-10-17T03:40:24;99410.91;;;11.95;100.00
18509;BME280;9383;50.928;12.116;2022-10-17T03:42:50;99418.75;;;11.98;100.00
18509;BME280;9383;50.928;12.116;2022-10-17T03:45:17;99420.44;;;12.01;100.00
18509;BME280;9383;50.928;12.116;2022-10-17T03:47:43;99425.69;;;12.04;100.00
18509;BME280;9383;50.928;12.116;2022-10-17T03:50:10;99424.66;;;12.08;100.00
18509;BME280;9383;50.928;12.116;2022-10-17T03:52:36;99420.16;;;12.10;100.00
18509;BME280;9383;50.928;12.116;2022-10-17T03:55:03;99418.38;;;12.10;100.00
18509;BME280;9383;50.928;12.116;2022-10-17T03:57:29;99428.94;;;12.12;100.00
18509;BME280;9383;50.928;12.116;2022-10-17T03:59:56;99427.13;;;12.14;100.00
18509;BME280;9383;50.928;12.116;2022-10-17T04:02:22;99434.19;;;12.15;100.00
18509;BME280;9383;50.928;12.116;2022-10-17T04:04:49;99443.91;;;12.16;100.00
18509;BME280;9383;50.928;12.116;2022-10-17T04:07:15;99441.13;;;12.19;100.00
18509;BME280;9383;50.928;12.116;2022-10-17T04:09:42;99448.22;;;12.19;100.00
18509;BME280;9383;50.928;12.116;2022-10-17T04:12:08;99458.84;;;12.19;100.00
18509;BME280;9383;50.928;12.116;2022-10-17T04:14:36;99456.28;;;12.16;100.00
18509;BME280;9383;50.928;12.116;2022-10-17T04:17:03;99463.41;;;12.15;100.00
18509;BME280;9383;50.928;12.116;2022-10-17T04:19:29;99466.13;;;12.14;100.00
18509;BME280;9383;50.928;12.116;2022-10-17T04:21:55;99466.13;;;12.14;100.00
18509;BME280;9383;50.928;12.116;2022-10-17T04:24:22;99458.19;;;12.12;100.00
18509;BME280;9383;50.928;12.116;2022-10-17T04:26:50;99456.44;;;12.11;100.00
18509;BME280;9383;50.928;12.116;2022-10-17T04:29:17;99461.84;;;12.09;100.00
18509;BME280;9383;50.928;12.116;2022-10-17T04:31:44;99459.19;;;12.09;100.00
18509;BME280;9383;50.928;12.116;2022-10-17T04:34:10;99460.19;;;12.05;100.00
18509;BME280;9383;50.928;12.116;2022-10-17T04:36:39;99462.91;;;12.04;100.00
18509;BME280;9383;50.928;12.116;2022-10-17T04:39:06;99462.91;;;12.04;100.00
18509;BME280;9383;50.928;12.116;2022-10-17T04:41:32;99470.00;;;12.03;100.00
18509;BME280;9383;50.928;12.116;2022-10-17T04:43:59;99469.13;;;12.03;100.00
18509;BME280;9383;50.928;12.116;2022-10-17T04:46:25;99470.91;;;12.01;100.00
18509;BME280;9383;50.928;12.116;2022-10-17T04:48:53;99465.72;;;11.98;100.00
18509;BME280;9383;50.928;12.116;2022-10-17T04:51:19;99461.38;;;11.95;100.00
18509;BME280;9383;50.928;12.116;2022-10-17T04:53:46;99459.72;;;11.91;100.00
18509;BME280;9383;50.928;12.116;2022-10-17T04:56:15;99466.97;;;11.86;100.00
18509;BME280;9383;50.928;12.116;2022-10-17T04:58:43;99465.28;;;11.83;100.00
18509;BME280;9383;50.928;12.116;2022-10-17T05:01:16;99468.16;;;11.77;100.00
18509;BME280;9383;50.928;12.116;2022-10-17T05:03:43;99469.06;;;11.76;100.00
18509;BME280;9383;50.928;12.116;2022-10-17T05:06:14;99475.34;;;11.73;100.00
18509;BME280;9383;50.928;12.116;2022-10-17T05:08:43;99475.47;;;11.68;100.00
18509;BME280;9383;50.928;12.116;2022-10-17T05:11:28;99484.47;;;11.64;100.00
18509;BME280;9383;50.928;12.116;2022-10-17T05:14:00;99477.50;;;11.60;100.00
18509;BME280;9383;50.928;12.116;2022-10-17T05:16:27;99488.22;;;11.57;100.00
18509;BME280;9383;50.928;12.116;2022-10-17T05:18:56;99482.13;;;11.53;100.00
18509;BME280;9383;50.928;12.116;2022-10-17T05:21:25;99488.41;;;11.51;100.00
18509;BME280;9383;50.928;12.116;2022-10-17T05:23:52;99485.91;;;11.46;100.00
18509;BME280;9383;50.928;12.116;2022-10-17T05:26:19;99488.69;;;11.42;100.00
18509;BME280;9383;50.928;12.116;2022-10-17T05:28:49;99492.28;;;11.39;100.00
18509;BME280;9383;50.928;12.116;2022-10-17T05:31:17;99495.06;;;11.34;100.00
18509;BME280;9383;50.928;12.116;2022-10-17T05:33:44;99489.84;;;11.31;100.00
18509;BME280;9383;50.928;12.116;2022-10-17T05:36:11;99488.22;;;11.27;100.00
18509;BME280;9383;50.928;12.116;2022-10-17T05:38:38;99497.16;;;11.23;100.00
18509;BME280;9383;50.928;12.116;2022-10-17T05:41:05;99492.84;;;11.20;100.00
18509;BME280;9383;50.928;12.116;2022-10-17T05:43:32;99493.78;;;11.18;100.00
18509;BME280;9383;50.928;12.116;2022-10-17T05:46:01;99502.69;;;11.15;100.00
18509;BME280;9383;50.928;12.116;2022-10-17T05:48:28;99496.69;;;11.08;100.00
18509;BME280;9383;50.928;12.116;2022-10-17T05:51:04;99500.28;;;11.06;100.00
18509;BME280;9383;50.928;12.116;2022-10-17T05:53:33;99497.78;;;11.01;100.00
18509;BME280;9383;50.928;12.116;2022-10-17T05:56:02;99504.00;;;11.00;100.00
18509;BME280;9383;50.928;12.116;2022-10-17T05:58:29;99498.78;;;10.97;100.00
18509;BME280;9383;50.928;12.116;2022-10-17T06:01:03;99499.78;;;10.93;100.00
18509;BME280;9383;50.928;12.116;2022-10-17T06:03:31;99503.38;;;10.90;100.00
18509;BME280;9383;50.928;12.116;2022-10-17T06:06:06;99510.50;;;10.88;100.00
18509;BME280;9383;50.928;12.116;2022-10-17T06:08:33;99520.25;;;10.88;100.00
18509;BME280;9383;50.928;12.116;2022-10-17T06:11:00;99522.94;;;10.86;100.00
18509;BME280;9383;50.928;12.116;2022-10-17T06:13:28;99513.25;;;10.85;100.00
18509;BME280;9383;50.928;12.116;2022-10-17T06:15:55;99512.34;;;10.86;100.00
18509;BME280;9383;50.928;12.116;2022-10-17T06:18:21;99513.16;;;10.88;100.00
18509;BME280;9383;50.928;12.116;2022-10-17T06:20:48;99513.97;;;10.92;100.00
18509;BME280;9383;50.928;12.116;2022-10-17T06:23:15;99522.72;;;10.95;100.00
18509;BME280;9383;50.928;12.116;2022-10-17T06:25:42;99520.81;;;10.99;100.00
18509;BME280;9383;50.928;12.116;2022-10-17T06:28:09;99519.75;;;11.06;100.00
18509;BME280;9383;50.928;12.116;2022-10-17T06:30:40;99523.06;;;11.15;100.00
18509;BME280;9383;50.928;12.116;2022-10-17T06:33:07;99516.53;;;11.26;100.00
18509;BME280;9383;50.928;12.116;2022-10-17T06:35:33;99517.00;;;11.41;100.00
18509;BME280;9383;50.928;12.116;2022-10-17T06:38:00;99516.50;;;11.58;100.00
18509;BME280;9383;50.928;12.116;2022-10-17T06:40:26;99520.44;;;11.75;100.00
18509;BME280;9383;50.928;12.116;2022-10-17T06:42:53;99521.72;;;11.91;100.00
18509;BME280;9383;50.928;12.116;2022-10-17T06:45:21;99520.34;;;12.08;100.00
18509;BME280;9383;50.928;12.116;2022-10-17T06:47:47;99522.41;;;12.27;100.00
18509;BME280;9383;50.928;12.116;2022-10-17T06:50:15;99531.63;;;12.43;100.00
18509;BME280;9383;50.928;12.116;2022-10-17T06:52:41;99533.72;;;12.60;100.00
18509;BME280;9383;50.928;12.116;2022-10-17T06:55:08;99538.50;;;12.76;100.00
18509;BME280;9383;50.928;12.116;2022-10-17T06:57:34;99538.78;;;12.93;100.00
18509;BME280;9383;50.928;12.116;2022-10-17T07:00:01;99542.66;;;13.10;100.00
18509;BME280;9383;50.928;12.116;2022-10-17T07:02:28;99558.03;;;13.27;100.00
18509;BME280;9383;50.928;12.116;2022-10-17T07:04:54;99562.84;;;13.41;100.00
18509;BME280;9383;50.928;12.116;2022-10-17T07:07:21;99551.72;;;13.55;100.00
18509;BME280;9383;50.928;12.116;2022-10-17T07:09:48;99563.63;;;13.69;100.00
18509;BME280;9383;50.928;12.116;2022-10-17T07:12:14;99555.22;;;13.79;100.00
18509;BME280;9383;50.928;12.116;2022-10-17T07:14:41;99560.16;;;13.90;100.00
18509;BME280;9383;50.928;12.116;2022-10-17T07:17:08;99564.25;;;13.99;100.00
18509;BME280;9383;50.928;12.116;2022-10-17T07:19:36;99553.97;;;14.12;100.00
18509;BME280;9383;50.928;12.116;2022-10-17T07:22:02;99562.41;;;14.24;100.00
18509;BME280;9383;50.928;12.116;2022-10-17T07:24:29;99558.38;;;14.35;100.00
18509;BME280;9383;50.928;12.116;2022-10-17T07:26:55;99564.13;;;14.47;100.00
18509;BME280;9383;50.928;12.116;2022-10-17T07:29:22;99568.09;;;14.59;100.00
18509;BME280;9383;50.928;12.116;2022-10-17T07:31:48;99565.84;;;14.70;100.00
18509;BME280;9383;50.928;12.116;2022-10-17T07:34:17;99564.50;;;14.82;100.00
18509;BME280;9383;50.928;12.116;2022-10-17T07:36:45;99564.84;;;14.95;100.00
18509;BME280;9383;50.928;12.116;2022-10-17T07:39:14;99572.31;;;15.08;100.00
18509;BME280;9383;50.928;12.116;2022-10-17T07:41:41;99567.28;;;15.21;100.00
18509;BME280;9383;50.928;12.116;2022-10-17T07:44:07;99568.63;;;15.31;100.00
18509;BME280;9383;50.928;12.116;2022-10-17T07:46:34;99568.13;;;15.42;100.00
18509;BME280;9383;50.928;12.116;2022-10-17T07:49:00;99566.72;;;15.54;100.00
18509;BME280;9383;50.928;12.116;2022-10-17T07:51:27;99562.72;;;15.64;100.00
18509;BME280;9383;50.928;12.116;2022-10-17T07:53:53;99569.28;;;15.76;100.00
18509;BME280;9383;50.928;12.116;2022-10-17T07:56:20;99566.97;;;15.87;100.00
18509;BME280;9383;50.928;12.116;2022-10-17T07:58:51;99566.50;;;15.98;100.00
18509;BME280;9383;50.928;12.116;2022-10-17T08:01:18;99560.56;;;16.11;100.00
18509;BME280;9383;50.928;12.116;2022-10-17T08:03:45;99572.34;;;16.26;100.00
18509;BME280;9383;50.928;12.116;2022-10-17T08:06:12;99569.06;;;16.38;100.00
18509;BME280;9383;50.928;12.116;2022-10-17T08:08:40;99572.81;;;16.53;100.00
18509;BME280;9383;50.928;12.116;2022-10-17T08:11:10;99571.16;;;16.68;100.00
18509;BME280;9383;50.928;12.116;2022-10-17T08:13:37;99571.25;;;16.84;100.00
18509;BME280;9383;50.928;12.116;2022-10-17T08:16:08;99570.53;;;16.98;100.00
18509;BME280;9383;50.928;12.116;2022-10-17T08:18:37;99577.66;;;17.17;100.00
18509;BME280;9383;50.928;12.116;2022-10-17T08:21:05;99574.00;;;17.36;100.00
18509;BME280;9383;50.928;12.116;2022-10-17T08:23:32;99576.47;;;17.56;100.00
18509;BME280;9383;50.928;12.116;2022-10-17T08:25:59;99577.22;;;17.76;100.00
18509;BME280;9383;50.928;12.116;2022-10-17T08:28:26;99582.38;;;17.97;100.00
18509;BME280;9383;50.928;12.116;2022-10-17T08:30:52;99586.53;;;18.19;100.00
18509;BME280;9383;50.928;12.116;2022-10-17T08:33:19;99577.28;;;18.40;93.08
18509;BME280;9383;50.928;12.116;2022-10-17T08:35:46;99571.63;;;18.61;94.58
18509;BME280;9383;50.928;12.116;2022-10-17T08:38:12;99570.34;;;18.83;90.04
18509;BME280;9383;50.928;12.116;2022-10-17T08:40:39;99579.00;;;19.04;88.85
18509;BME280;9383;50.928;12.116;2022-10-17T08:46:02;99579.13;;;19.46;84.16
18509;BME280;9383;50.928;12.116;2022-10-17T08:48:35;99577.13;;;19.64;82.44
18509;BME280;9383;50.928;12.116;2022-10-17T08:51:26;99575.09;;;19.82;82.35
18509;BME280;9383;50.928;12.116;2022-10-17T08:53:57;99562.44;;;19.99;78.63
18509;BME280;9383;50.928;12.116;2022-10-17T08:56:36;99569.63;;;20.13;76.72
18509;BME280;9383;50.928;12.116;2022-10-17T08:59:11;99570.25;;;20.31;76.27
18509;BME280;9383;50.928;12.116;2022-10-17T09:02:38;99563.09;;;20.45;74.70
18509;BME280;9383;50.928;12.116;2022-10-17T09:19:21;99555.75;;;21.28;69.39
18509;BME280;9383;50.928;12.116;2022-10-17T09:24:39;99556.72;;;21.53;71.28
18509;BME280;9383;50.928;12.116;2022-10-17T09:29:49;99562.13;;;21.78;68.79
18509;BME280;9383;50.928;12.116;2022-10-17T09:32:24;99561.25;;;21.91;69.13
18509;BME280;9383;50.928;12.116;2022-10-17T09:34:53;99560.34;;;22.03;69.09
18509;BME280;9383;50.928;12.116;2022-10-17T09:37:25;99553.31;;;22.14;68.63
18509;BME280;9383;50.928;12.116;2022-10-17T09:39:55;99555.28;;;22.23;66.46
18509;BME280;9383;50.928;12.116;2022-10-17T09:42:25;99557.09;;;22.35;66.00
18509;BME280;9383;50.928;12.116;2022-10-17T09:45:22;99556.31;;;22.46;66.06
18509;BME280;9383;50.928;12.116;2022-10-17T09:50:45;99541.81;;;22.72;64.10
18509;BME280;9383;50.928;12.116;2022-10-17T09:53:21;99548.25;;;22.82;64.47
18509;BME280;9383;50.928;12.116;2022-10-17T09:56:03;99552.22;;;22.89;64.18
18509;BME280;9383;50.928;12.116;2022-10-17T09:58:51;99548.03;;;22.97;62.81
18509;BME280;9383;50.928;12.116;2022-10-17T10:01:27;99546.94;;;22.99;61.60
18509;BME280;9383;50.928;12.116;2022-10-17T10:04:13;99542.78;;;23.07;63.13
18509;BME280;9383;50.928;12.116;2022-10-17T10:06:59;99549.44;;;23.14;62.07
18509;BME280;9383;50.928;12.116;2022-10-17T10:09:29;99548.00;;;23.21;59.98
18509;BME280;9383;50.928;12.116;2022-10-17T10:11:58;99552.16;;;23.25;60.13
18509;BME280;9383;50.928;12.116;2022-10-17T10:14:34;99545.56;;;23.29;59.85
18509;BME280;9383;50.928;12.116;2022-10-17T10:17:05;99550.59;;;23.34;60.12
18509;BME280;9383;50.928;12.116;2022-10-17T10:19:34;99549.00;;;23.43;61.00
18509;BME280;9383;50.928;12.116;2022-10-17T10:22:15;99545.47;;;23.54;62.06
18509;BME280;9383;50.928;12.116;2022-10-17T10:24:41;99549.16;;;23.64;61.34
18509;BME280;9383;50.928;12.116;2022-10-17T10:27:16;99552.84;;;23.74;61.12
18509;BME280;9383;50.928;12.116;2022-10-17T10:29:51;99549.66;;;23.81;58.22
18509;BME280;9383;50.928;12.116;2022-10-17T10:32:21;99553.72;;;23.86;57.67
18509;BME280;9383;50.928;12.116;2022-10-17T10:34:58;99546.19;;;23.90;56.79
18509;BME280;9383;50.928;12.116;2022-10-17T10:40:14;99535.47;;;24.11;59.50
18509;BME280;9383;50.928;12.116;2022-10-17T10:42:46;99544.69;;;24.20;58.91
18509;BME280;9383;50.928;12.116;2022-10-17T10:48:29;99537.25;;;24.34;57.05
18509;BME280;9383;50.928;12.116;2022-10-17T10:51:13;99535.16;;;24.37;56.42
18509;BME280;9383;50.928;12.116;2022-10-17T10:54:09;99529.59;;;24.39;55.01
18509;BME280;9383;50.928;12.116;2022-10-17T10:56:50;99523.34;;;24.38;55.20
18509;BME280;9383;50.928;12.116;2022-10-17T10:59:53;99533.31;;;24.38;55.27
18509;BME280;9383;50.928;12.116;2022-10-17T11:02:37;99520.38;;;24.41;54.79
18509;BME280;9383;50.928;12.116;2022-10-17T11:08:35;99517.00;;;24.49;55.47
18509;BME280;9383;50.928;12.116;2022-10-17T11:11:06;99507.38;;;24.56;55.75
18509;BME280;9383;50.928;12.116;2022-10-17T11:13:59;99514.13;;;24.62;55.17
18509;BME280;9383;50.928;12.116;2022-10-17T11:16:36;99517.44;;;24.66;54.88
18509;BME280;9383;50.928;12.116;2022-10-17T11:19:13;99526.75;;;24.73;54.12
18509;BME280;9383;50.928;12.116;2022-10-17T11:22:14;99516.28;;;24.80;53.81
18509;BME280;9383;50.928;12.116;2022-10-17T11:27:27;99512.13;;;24.97;54.36
18509;BME280;9383;50.928;12.116;2022-10-17T11:29:55;99513.31;;;25.04;53.50
18509;BME280;9383;50.928;12.116;2022-10-17T11:32:53;99509.34;;;25.08;47.39
18509;BME280;9383;50.928;12.116;2022-10-17T11:35:40;99509.66;;;25.15;49.06
18509;BME280;9383;50.928;12.116;2022-10-17T11:40:49;99503.28;;;25.26;48.98
18509;BME280;9383;50.928;12.116;2022-10-17T11:43:29;99499.03;;;25.33;49.20
18509;BME280;9383;50.928;12.116;2022-10-17T11:46:02;99497.66;;;25.39;49.71
18509;BME280;9383;50.928;12.116;2022-10-17T11:48:40;99500.81;;;25.44;47.05
18509;BME280;9383;50.928;12.116;2022-10-17T11:51:20;99495.88;;;25.49;48.36
18509;BME280;9383;50.928;12.116;2022-10-17T11:54:03;99492.75;;;25.54;47.72
18509;BME280;9383;50.928;12.116;2022-10-17T11:56:59;99487.75;;;25.59;47.85
18509;BME280;9383;50.928;12.116;2022-10-17T12:02:45;99479.63;;;25.69;48.74
18509;BME280;9383;50.928;12.116;2022-10-17T12:05:30;99485.38;;;25.76;48.42
18509;BME280;9383;50.928;12.116;2022-10-17T12:10:58;99479.41;;;25.82;46.55
18509;BME280;9383;50.928;12.116;2022-10-17T12:15:55;99475.41;;;25.86;44.88
18509;BME280;9383;50.928;12.116;2022-10-17T12:18:25;99479.13;;;25.85;43.96
18509;BME280;9383;50.928;12.116;2022-10-17T12:20:59;99473.09;;;25.81;43.80
18509;BME280;9383;50.928;12.116;2022-10-17T12:23:30;99474.09;;;25.80;43.23
18509;BME280;9383;50.928;12.116;2022-10-17T12:26:02;99473.25;;;25.80;43.37
18509;BME280;9383;50.928;12.116;2022-10-17T12:28:41;99473.97;;;25.82;44.72
18509;BME280;9383;50.928;12.116;2022-10-17T12:33:55;99475.09;;;25.79;44.19
18509;BME280;9383;50.928;12.116;2022-10-17T12:49:20;99466.44;;;25.54;43.77
18509;BME280;9383;50.928;12.116;2022-10-17T12:55:08;99456.59;;;25.53;43.48
18509;BME280;9383;50.928;12.116;2022-10-17T13:00:53;99460.69;;;25.48;43.65
18509;BME280;9383;50.928;12.116;2022-10-17T13:05:54;99468.94;;;25.46;44.79
18509;BME280;9383;50.928;12.116;2022-10-17T13:08:24;99460.97;;;25.45;45.98
18509;BME280;9383;50.928;12.116;2022-10-17T13:10:54;99468.09;;;25.46;46.76
18509;BME280;9383;50.928;12.116;2022-10-17T13:13:36;99474.66;;;25.43;47.25
18509;BME280;9383;50.928;12.116;2022-10-17T13:16:05;99471.94;;;25.43;47.27
18509;BME280;9383;50.928;12.116;2022-10-17T13:18:35;99472.94;;;25.42;47.98
18509;BME280;9383;50.928;12.116;2022-10-17T13:21:06;99475.78;;;25.40;47.88
18509;BME280;9383;50.928;12.116;2022-10-17T13:23:39;99479.50;;;25.39;47.12
18509;BME280;9383;50.928;12.116;2022-10-17T13:28:36;99482.38;;;25.38;48.09
18509;BME280;9383;50.928;12.116;2022-10-17T13:31:02;99486.19;;;25.35;48.05
18509;BME280;9383;50.928;12.116;2022-10-17T13:33:39;99486.31;;;25.34;48.47
18509;BME280;9383;50.928;12.116;2022-10-17T13:36:13;99483.75;;;25.32;48.57
18509;BME280;9383;50.928;12.116;2022-10-17T13:38:44;99483.88;;;25.31;48.83
18509;BME280;9383;50.928;12.116;2022-10-17T13:41:14;99481.31;;;25.29;49.26
18509;BME280;9383;50.928;12.116;2022-10-17T13:43:43;99482.28;;;25.28;49.65
18509;BME280;9383;50.928;12.116;2022-10-17T13:46:25;99486.88;;;25.27;50.24
18509;BME280;9383;50.928;12.116;2022-10-17T13:48:52;99480.72;;;25.25;50.81
18509;BME280;9383;50.928;12.116;2022-10-17T13:51:19;99474.59;;;25.23;50.91
18509;BME280;9383;50.928;12.116;2022-10-17T13:53:45;99472.00;;;25.22;51.05
18509;BME280;9383;50.928;12.116;2022-10-17T13:58:50;99474.00;;;25.20;51.21
18509;BME280;9383;50.928;12.116;2022-10-17T14:01:18;99480.53;;;25.17;51.58
18509;BME280;9383;50.928;12.116;2022-10-17T14:03:47;99485.13;;;25.17;51.73
18509;BME280;9383;50.928;12.116;2022-10-17T14:06:28;99480.69;;;25.16;52.01
18509;BME280;9383;50.928;12.116;2022-10-17T14:09:04;99485.53;;;25.12;52.09
18509;BME280;9383;50.928;12.116;2022-10-17T14:11:35;99478.38;;;25.11;52.23
18509;BME280;9383;50.928;12.116;2022-10-17T14:14:05;99480.50;;;25.07;51.96
18509;BME280;9383;50.928;12.116;2022-10-17T14:16:39;99485.31;;;25.04;51.38
18509;BME280;9383;50.928;12.116;2022-10-17T14:19:33;99483.00;;;24.99;51.82
18509;BME280;9383;50.928;12.116;2022-10-17T14:22:26;99490.41;;;24.97;52.14
18509;BME280;9383;50.928;12.116;2022-10-17T14:24:53;99490.69;;;24.94;52.02
18509;BME280;9383;50.928;12.116;2022-10-17T14:27:36;99491.81;;;24.91;51.77
18509;BME280;9383;50.928;12.116;2022-10-17T14:30:27;99496.63;;;24.88;51.80
18509;BME280;9383;50.928;12.116;2022-10-17T14:32:58;99500.50;;;24.85;51.68
18509;BME280;9383;50.928;12.116;2022-10-17T14:35:27;99494.47;;;24.81;51.19
18509;BME280;9383;50.928;12.116;2022-10-17T14:37:58;99442.84;;;24.50;51.39
18509;BME280;9383;50.928;12.116;2022-10-17T14:40:27;99495.94;;;24.74;51.56
18509;BME280;9383;50.928;12.116;2022-10-17T14:42:57;99499.03;;;24.69;52.03
18509;BME280;9383;50.928;12.116;2022-10-17T14:45:36;99504.84;;;24.65;52.17
18509;BME280;9383;50.928;12.116;2022-10-17T14:48:12;99499.84;;;24.60;52.25
18509;BME280;9383;50.928;12.116;2022-10-17T14:50:40;99493.81;;;24.56;52.56
18509;BME280;9383;50.928;12.116;2022-10-17T14:55:39;99502.72;;;24.47;52.49
18509;BME280;9383;50.928;12.116;2022-10-17T15:02:00;99504.03;;;24.32;53.50
18509;BME280;9383;50.928;12.116;2022-10-17T15:04:27;99508.09;;;24.26;53.98
18509;BME280;9383;50.928;12.116;2022-10-17T15:06:54;99505.03;;;24.19;54.54
18509;BME280;9383;50.928;12.116;2022-10-17T15:09:20;99512.69;;;24.14;55.53
18509;BME280;9383;50.928;12.116;2022-10-17T15:11:49;99516.16;;;24.05;56.59